sensor_id;sensor_type;location;lat;lon;timestamp;P1;durP1;ratioP1;P2;durP2;ratioP2
46411;SDS011;32113;42.012;24.870;2023-06-22T00:01:48;7.00;;;6.05;;
46411;SDS011;32113;42.012;24.870;2023-06-22T00:04:13;7.07;;;5.63;;
46411;SDS011;32113;42.012;24.870;2023-06-22T00:06:39;7.35;;;6.00;;
46411;SDS011;32113;42.012;24.870;2023-06-22T00:09:04;6.32;;;5.72;;
46411;SDS011;32113;42.012;24.870;2023-06-22T00:11:31;6.70;;;6.00;;
46411;SDS011;32113;42.012;24.870;2023-06-22T00:13:58;7.82;;;6.07;;
46411;SDS011;32113;42.012;24.870;2023-06-22T00:16:24;7.97;;;5.82;;
46411;SDS011;32113;42.012;24.870;2023-06-22T00:18:49;8.80;;;5.47;;
46411;SDS011;32113;42.012;24.870;2023-06-22T00:21:15;6.20;;;5.55;;
46411;SDS011;32113;42.012;24.870;2023-06-22T00:23:40;9.05;;;6.03;;
46411;SDS011;32113;42.012;24.870;2023-06-22T00:26:06;8.35;;;5.47;;
46411;SDS011;32113;42.012;24.870;2023-06-22T00:28:32;8.57;;;6.05;;
46411;SDS011;32113;42.012;24.870;2023-06-22T00:30:57;6.60;;;5.60;;
46411;SDS011;32113;42.012;24.870;2023-06-22T00:33:23;8.95;;;5.85;;
46411;SDS011;32113;42.012;24.870;2023-06-22T00:35:48;8.75;;;6.50;;
46411;SDS011;32113;42.012;24.870;2023-06-22T00:38:17;6.60;;;5.68;;
46411;SDS011;32113;42.012;24.870;2023-06-22T00:40:43;6.97;;;6.03;;
46411;SDS011;32113;42.012;24.870;2023-06-22T00:43:08;7.03;;;5.57;;
46411;SDS011;32113;42.012;24.870;2023-06-22T00:45:33;10.50;;;6.25;;
46411;SDS011;32113;42.012;24.870;2023-06-22T00:47:59;7.63;;;5.93;;
46411;SDS011;32113;42.012;24.870;2023-06-22T00:50:26;7.03;;;6.25;;
46411;SDS011;32113;42.012;24.870;2023-06-22T00:52:56;9.50;;;6.65;;
46411;SDS011;32113;42.012;24.870;2023-06-22T00:55:23;7.10;;;6.15;;
46411;SDS011;32113;42.012;24.870;2023-06-22T00:57:51;6.93;;;5.53;;
46411;SDS011;32113;42.012;24.870;2023-06-22T01:00:20;6.88;;;5.93;;
46411;SDS011;32113;42.012;24.870;2023-06-22T01:02:49;6.32;;;5.65;;
46411;SDS011;32113;42.012;24.870;2023-06-22T01:05:17;6.85;;;6.10;;
46411;SDS011;32113;42.012;24.870;2023-06-22T01:10:48;7.70;;;6.05;;
46411;SDS011;32113;42.012;24.870;2023-06-22T01:16:26;6.68;;;5.65;;
46411;SDS011;32113;42.012;24.870;2023-06-22T01:18:55;8.00;;;6.05;;
46411;SDS011;32113;42.012;24.870;2023-06-22T01:21:23;11.38;;;5.60;;
46411;SDS011;32113;42.012;24.870;2023-06-22T01:23:56;6.38;;;5.60;;
46411;SDS011;32113;42.012;24.870;2023-06-22T01:28:59;7.90;;;5.95;;
46411;SDS011;32113;42.012;24.870;2023-06-22T01:31:26;8.18;;;5.95;;
46411;SDS011;32113;42.012;24.870;2023-06-22T01:34:04;8.30;;;6.45;;
46411;SDS011;32113;42.012;24.870;2023-06-22T01:36:31;6.80;;;5.53;;
46411;SDS011;32113;42.012;24.870;2023-06-22T01:38:58;9.90;;;6.00;;
46411;SDS011;32113;42.012;24.870;2023-06-22T01:41:24;7.22;;;6.00;;
46411;SDS011;32113;42.012;24.870;2023-06-22T01:43:51;9.15;;;6.07;;
46411;SDS011;32113;42.012;24.870;2023-06-22T01:46:18;9.35;;;6.07;;
46411;SDS011;32113;42.012;24.870;2023-06-22T01:48:45;7.90;;;6.00;;
46411;SDS011;32113;42.012;24.870;2023-06-22T01:51:11;8.77;;;6.77;;
46411;SDS011;32113;42.012;24.870;2023-06-22T01:53:37;7.03;;;6.05;;
46411;SDS011;32113;42.012;24.870;2023-06-22T01:56:02;7.70;;;6.55;;
46411;SDS011;32113;42.012;24.870;2023-06-22T01:58:29;6.57;;;5.78;;
46411;SDS011;32113;42.012;24.870;2023-06-22T02:01:00;10.50;;;6.60;;
46411;SDS011;32113;42.012;24.870;2023-06-22T02:03:41;8.25;;;6.13;;
46411;SDS011;32113;42.012;24.870;2023-06-22T02:06:15;9.25;;;6.63;;
46411;SDS011;32113;42.012;24.870;2023-06-22T02:08:48;9.07;;;6.10;;
46411;SDS011;32113;42.012;24.870;2023-06-22T02:11:17;9.98;;;6.65;;
46411;SDS011;32113;42.012;24.870;2023-06-22T02:13:44;7.35;;;6.40;;
46411;SDS011;32113;42.012;24.870;2023-06-22T02:16:11;7.78;;;6.65;;
46411;SDS011;32113;42.012;24.870;2023-06-22T02:18:38;8.07;;;6.35;;
46411;SDS011;32113;42.012;24.870;2023-06-22T02:21:05;7.95;;;6.22;;
46411;SDS011;32113;42.012;24.870;2023-06-22T02:23:31;10.88;;;5.72;;
46411;SDS011;32113;42.012;24.870;2023-06-22T02:25:59;7.38;;;6.10;;
46411;SDS011;32113;42.012;24.870;2023-06-22T02:28:25;7.65;;;6.75;;
46411;SDS011;32113;42.012;24.870;2023-06-22T02:30:51;7.30;;;6.28;;
46411;SDS011;32113;42.012;24.870;2023-06-22T02:33:16;11.35;;;6.10;;
46411;SDS011;32113;42.012;24.870;2023-06-22T02:35:41;8.80;;;6.35;;
46411;SDS011;32113;42.012;24.870;2023-06-22T02:38:10;6.82;;;6.07;;
46411;SDS011;32113;42.012;24.870;2023-06-22T02:40:36;8.40;;;6.60;;
46411;SDS011;32113;42.012;24.870;2023-06-22T02:43:02;10.52;;;6.28;;
46411;SDS011;32113;42.012;24.870;2023-06-22T02:45:28;9.13;;;6.60;;
46411;SDS011;32113;42.012;24.870;2023-06-22T02:47:53;10.15;;;7.05;;
46411;SDS011;32113;42.012;24.870;2023-06-22T02:50:19;7.57;;;5.88;;
46411;SDS011;32113;42.012;24.870;2023-06-22T02:52:45;9.57;;;6.10;;
46411;SDS011;32113;42.012;24.870;2023-06-22T02:55:10;9.35;;;6.28;;
46411;SDS011;32113;42.012;24.870;2023-06-22T02:57:36;7.72;;;6.80;;
46411;SDS011;32113;42.012;24.870;2023-06-22T03:00:05;7.72;;;6.50;;
46411;SDS011;32113;42.012;24.870;2023-06-22T03:02:41;7.93;;;6.97;;
46411;SDS011;32113;42.012;24.870;2023-06-22T03:05:07;7.47;;;6.38;;
46411;SDS011;32113;42.012;24.870;2023-06-22T03:07:38;8.40;;;6.50;;
46411;SDS011;32113;42.012;24.870;2023-06-22T03:10:04;7.72;;;6.30;;
46411;SDS011;32113;42.012;24.870;2023-06-22T03:12:29;8.57;;;6.40;;
46411;SDS011;32113;42.012;24.870;2023-06-22T03:14:55;6.55;;;5.95;;
46411;SDS011;32113;42.012;24.870;2023-06-22T03:17:20;8.77;;;6.85;;
46411;SDS011;32113;42.012;24.870;2023-06-22T03:19:46;13.18;;;8.55;;
46411;SDS011;32113;42.012;24.870;2023-06-22T03:22:11;10.07;;;7.38;;
46411;SDS011;32113;42.012;24.870;2023-06-22T03:24:36;8.43;;;6.25;;
46411;SDS011;32113;42.012;24.870;2023-06-22T03:27:04;8.20;;;6.45;;
46411;SDS011;32113;42.012;24.870;2023-06-22T03:29:30;7.53;;;6.55;;
46411;SDS011;32113;42.012;24.870;2023-06-22T03:31:56;8.02;;;7.03;;
46411;SDS011;32113;42.012;24.870;2023-06-22T03:34:21;8.15;;;7.03;;
46411;SDS011;32113;42.012;24.870;2023-06-22T03:36:47;8.93;;;6.50;;
46411;SDS011;32113;42.012;24.870;2023-06-22T03:39:12;7.55;;;6.70;;
46411;SDS011;32113;42.012;24.870;2023-06-22T03:41:38;9.55;;;7.35;;
46411;SDS011;32113;42.012;24.870;2023-06-22T03:44:04;10.30;;;7.07;;
46411;SDS011;32113;42.012;24.870;2023-06-22T03:46:29;8.85;;;7.93;;
46411;SDS011;32113;42.012;24.870;2023-06-22T03:48:55;10.57;;;8.55;;
46411;SDS011;32113;42.012;24.870;2023-06-22T03:51:20;12.52;;;9.23;;
46411;SDS011;32113;42.012;24.870;2023-06-22T03:53:46;10.23;;;8.18;;
46411;SDS011;32113;42.012;24.870;2023-06-22T03:56:11;9.65;;;8.32;;
46411;SDS011;32113;42.012;24.870;2023-06-22T03:58:37;9.57;;;8.32;;
46411;SDS011;32113;42.012;24.870;2023-06-22T04:01:08;9.27;;;7.95;;
46411;SDS011;32113;42.012;24.870;2023-06-22T04:03:36;11.73;;;7.90;;
46411;SDS011;32113;42.012;24.870;2023-06-22T04:06:02;8.43;;;7.07;;
46411;SDS011;32113;42.012;24.870;2023-06-22T04:08:27;7.05;;;6.35;;
46411;SDS011;32113;42.012;24.870;2023-06-22T04:10:53;9.00;;;6.60;;
46411;SDS011;32113;42.012;24.870;2023-06-22T04:13:18;12.20;;;7.55;;
46411;SDS011;32113;42.012;24.870;2023-06-22T04:15:44;11.55;;;7.70;;
46411;SDS011;32113;42.012;24.870;2023-06-22T04:18:09;8.88;;;6.68;;
46411;SDS011;32113;42.012;24.870;2023-06-22T04:20:35;8.90;;;6.70;;
46411;SDS011;32113;42.012;24.870;2023-06-22T04:23:00;7.57;;;6.80;;
46411;SDS011;32113;42.012;24.870;2023-06-22T04:25:26;8.63;;;6.82;;
46411;SDS011;32113;42.012;24.870;2023-06-22T04:27:51;8.50;;;7.30;;
46411;SDS011;32113;42.012;24.870;2023-06-22T04:30:17;8.20;;;6.43;;
46411;SDS011;32113;42.012;24.870;2023-06-22T04:32:43;7.88;;;7.07;;
46411;SDS011;32113;42.012;24.870;2023-06-22T04:35:09;12.77;;;7.20;;
46411;SDS011;32113;42.012;24.870;2023-06-22T04:37:35;9.50;;;7.28;;
46411;SDS011;32113;42.012;24.870;2023-06-22T04:40:00;10.30;;;7.90;;
46411;SDS011;32113;42.012;24.870;2023-06-22T04:42:26;17.25;;;10.40;;
46411;SDS011;32113;42.012;24.870;2023-06-22T04:44:52;14.80;;;11.93;;
46411;SDS011;32113;42.012;24.870;2023-06-22T04:47:17;12.38;;;10.23;;
46411;SDS011;32113;42.012;24.870;2023-06-22T04:49:43;19.83;;;11.38;;
46411;SDS011;32113;42.012;24.870;2023-06-22T04:52:09;19.25;;;10.93;;
46411;SDS011;32113;42.012;24.870;2023-06-22T04:54:37;24.38;;;11.27;;
46411;SDS011;32113;42.012;24.870;2023-06-22T04:57:05;15.10;;;10.07;;
46411;SDS011;32113;42.012;24.870;2023-06-22T04:59:35;24.90;;;11.45;;
46411;SDS011;32113;42.012;24.870;2023-06-22T05:02:03;18.77;;;12.85;;
46411;SDS011;32113;42.012;24.870;2023-06-22T05:04:29;21.15;;;13.65;;
46411;SDS011;32113;42.012;24.870;2023-06-22T05:06:56;20.13;;;14.05;;
46411;SDS011;32113;42.012;24.870;2023-06-22T05:09:22;16.85;;;13.05;;
46411;SDS011;32113;42.012;24.870;2023-06-22T05:11:48;17.67;;;11.45;;
46411;SDS011;32113;42.012;24.870;2023-06-22T05:14:14;21.80;;;12.75;;
46411;SDS011;32113;42.012;24.870;2023-06-22T05:16:40;23.77;;;12.38;;
46411;SDS011;32113;42.012;24.870;2023-06-22T05:21:32;22.63;;;12.63;;
46411;SDS011;32113;42.012;24.870;2023-06-22T05:23:57;28.33;;;12.82;;
46411;SDS011;32113;42.012;24.870;2023-06-22T05:26:27;20.65;;;11.48;;
46411;SDS011;32113;42.012;24.870;2023-06-22T05:28:57;19.00;;;11.52;;
46411;SDS011;32113;42.012;24.870;2023-06-22T05:31:23;20.08;;;12.15;;
46411;SDS011;32113;42.012;24.870;2023-06-22T05:33:49;20.33;;;11.60;;
46411;SDS011;32113;42.012;24.870;2023-06-22T05:36:16;12.30;;;7.88;;
46411;SDS011;32113;42.012;24.870;2023-06-22T05:38:43;18.17;;;9.55;;
46411;SDS011;32113;42.012;24.870;2023-06-22T05:41:09;17.65;;;9.77;;
46411;SDS011;32113;42.012;24.870;2023-06-22T05:43:34;13.85;;;7.57;;
46411;SDS011;32113;42.012;24.870;2023-06-22T05:46:00;9.10;;;6.60;;
46411;SDS011;32113;42.012;24.870;2023-06-22T05:48:26;12.43;;;7.13;;
46411;SDS011;32113;42.012;24.870;2023-06-22T05:50:52;15.80;;;7.53;;
46411;SDS011;32113;42.012;24.870;2023-06-22T05:53:18;12.65;;;8.90;;
46411;SDS011;32113;42.012;24.870;2023-06-22T05:55:43;23.83;;;11.65;;
46411;SDS011;32113;42.012;24.870;2023-06-22T05:58:09;22.10;;;13.63;;
46411;SDS011;32113;42.012;24.870;2023-06-22T06:00:34;38.35;;;14.15;;
46411;SDS011;32113;42.012;24.870;2023-06-22T06:03:00;31.90;;;14.90;;
46411;SDS011;32113;42.012;24.870;2023-06-22T06:05:32;30.83;;;12.95;;
46411;SDS011;32113;42.012;24.870;2023-06-22T06:07:59;34.13;;;13.30;;
46411;SDS011;32113;42.012;24.870;2023-06-22T06:10:26;27.75;;;12.52;;
46411;SDS011;32113;42.012;24.870;2023-06-22T06:12:51;31.00;;;13.57;;
46411;SDS011;32113;42.012;24.870;2023-06-22T06:15:17;25.50;;;13.68;;
46411;SDS011;32113;42.012;24.870;2023-06-22T06:17:46;19.05;;;14.35;;
46411;SDS011;32113;42.012;24.870;2023-06-22T06:20:12;25.33;;;14.15;;
46411;SDS011;32113;42.012;24.870;2023-06-22T06:22:38;21.58;;;14.73;;
46411;SDS011;32113;42.012;24.870;2023-06-22T06:25:04;21.33;;;13.70;;
46411;SDS011;32113;42.012;24.870;2023-06-22T06:27:30;20.45;;;12.75;;
46411;SDS011;32113;42.012;24.870;2023-06-22T06:29:56;19.67;;;12.73;;
46411;SDS011;32113;42.012;24.870;2023-06-22T06:32:21;21.85;;;12.98;;
46411;SDS011;32113;42.012;24.870;2023-06-22T06:34:47;19.08;;;12.55;;
46411;SDS011;32113;42.012;24.870;2023-06-22T06:37:12;18.30;;;13.65;;
46411;SDS011;32113;42.012;24.870;2023-06-22T06:39:38;20.13;;;11.93;;
46411;SDS011;32113;42.012;24.870;2023-06-22T06:42:04;19.83;;;12.85;;
46411;SDS011;32113;42.012;24.870;2023-06-22T06:44:30;25.13;;;12.30;;
46411;SDS011;32113;42.012;24.870;2023-06-22T06:46:55;18.77;;;12.05;;
46411;SDS011;32113;42.012;24.870;2023-06-22T06:49:20;17.38;;;11.10;;
46411;SDS011;32113;42.012;24.870;2023-06-22T06:51:46;20.88;;;11.20;;
46411;SDS011;32113;42.012;24.870;2023-06-22T06:54:11;18.63;;;12.45;;
46411;SDS011;32113;42.012;24.870;2023-06-22T06:56:37;19.60;;;11.70;;
46411;SDS011;32113;42.012;24.870;2023-06-22T06:59:02;19.48;;;11.43;;
46411;SDS011;32113;42.012;24.870;2023-06-22T07:01:27;19.92;;;12.00;;
46411;SDS011;32113;42.012;24.870;2023-06-22T07:03:59;18.25;;;11.57;;
46411;SDS011;32113;42.012;24.870;2023-06-22T07:06:25;18.65;;;11.70;;
46411;SDS011;32113;42.012;24.870;2023-06-22T07:08:54;17.70;;;11.80;;
46411;SDS011;32113;42.012;24.870;2023-06-22T07:11:20;24.53;;;12.63;;
46411;SDS011;32113;42.012;24.870;2023-06-22T07:13:45;20.20;;;12.60;;
46411;SDS011;32113;42.012;24.870;2023-06-22T07:16:11;19.75;;;11.45;;
46411;SDS011;32113;42.012;24.870;2023-06-22T07:18:36;18.25;;;11.55;;
46411;SDS011;32113;42.012;24.870;2023-06-22T07:21:02;16.42;;;12.40;;
46411;SDS011;32113;42.012;24.870;2023-06-22T07:23:31;14.20;;;11.55;;
46411;SDS011;32113;42.012;24.870;2023-06-22T07:25:56;19.85;;;11.52;;
46411;SDS011;32113;42.012;24.870;2023-06-22T07:28:22;16.55;;;10.95;;
46411;SDS011;32113;42.012;24.870;2023-06-22T07:30:47;16.75;;;10.98;;
46411;SDS011;32113;42.012;24.870;2023-06-22T07:33:13;14.82;;;9.52;;
46411;SDS011;32113;42.012;24.870;2023-06-22T07:35:38;17.58;;;10.63;;
46411;SDS011;32113;42.012;24.870;2023-06-22T07:38:04;15.60;;;10.07;;
46411;SDS011;32113;42.012;24.870;2023-06-22T07:40:29;13.15;;;10.05;;
46411;SDS011;32113;42.012;24.870;2023-06-22T07:42:54;15.38;;;10.75;;
46411;SDS011;32113;42.012;24.870;2023-06-22T07:45:20;16.20;;;9.90;;
46411;SDS011;32113;42.012;24.870;2023-06-22T07:47:46;14.23;;;11.35;;
46411;SDS011;32113;42.012;24.870;2023-06-22T07:50:11;10.80;;;9.63;;
46411;SDS011;32113;42.012;24.870;2023-06-22T07:52:36;12.38;;;9.32;;
46411;SDS011;32113;42.012;24.870;2023-06-22T07:55:02;15.05;;;8.68;;
46411;SDS011;32113;42.012;24.870;2023-06-22T07:57:28;10.70;;;8.20;;
46411;SDS011;32113;42.012;24.870;2023-06-22T07:59:58;14.63;;;8.77;;
46411;SDS011;32113;42.012;24.870;2023-06-22T08:02:25;12.88;;;7.78;;
46411;SDS011;32113;42.012;24.870;2023-06-22T08:04:51;10.13;;;7.57;;
46411;SDS011;32113;42.012;24.870;2023-06-22T08:07:16;10.63;;;9.05;;
46411;SDS011;32113;42.012;24.870;2023-06-22T08:09:46;11.00;;;7.78;;
46411;SDS011;32113;42.012;24.870;2023-06-22T08:12:12;12.20;;;8.05;;
46411;SDS011;32113;42.012;24.870;2023-06-22T08:14:38;9.80;;;7.07;;
46411;SDS011;32113;42.012;24.870;2023-06-22T08:17:04;10.18;;;7.53;;
46411;SDS011;32113;42.012;24.870;2023-06-22T08:19:30;8.10;;;6.78;;
46411;SDS011;32113;42.012;24.870;2023-06-22T08:21:56;8.73;;;6.40;;
46411;SDS011;32113;42.012;24.870;2023-06-22T08:24:22;7.28;;;6.15;;
46411;SDS011;32113;42.012;24.870;2023-06-22T08:26:51;8.38;;;5.93;;
46411;SDS011;32113;42.012;24.870;2023-06-22T08:29:18;8.95;;;6.70;;
46411;SDS011;32113;42.012;24.870;2023-06-22T08:31:43;13.80;;;6.57;;
46411;SDS011;32113;42.012;24.870;2023-06-22T08:34:09;9.02;;;5.90;;
46411;SDS011;32113;42.012;24.870;2023-06-22T08:36:34;8.43;;;5.57;;
46411;SDS011;32113;42.012;24.870;2023-06-22T08:39:02;8.68;;;5.90;;
46411;SDS011;32113;42.012;24.870;2023-06-22T08:41:28;6.60;;;6.00;;
46411;SDS011;32113;42.012;24.870;2023-06-22T08:43:54;7.55;;;6.10;;
46411;SDS011;32113;42.012;24.870;2023-06-22T08:46:20;10.60;;;6.18;;
46411;SDS011;32113;42.012;24.870;2023-06-22T08:48:48;6.57;;;5.93;;
46411;SDS011;32113;42.012;24.870;2023-06-22T08:51:14;6.28;;;5.65;;
46411;SDS011;32113;42.012;24.870;2023-06-22T08:53:39;5.43;;;4.88;;
46411;SDS011;32113;42.012;24.870;2023-06-22T08:56:05;7.25;;;5.60;;
46411;SDS011;32113;42.012;24.870;2023-06-22T08:58:30;7.43;;;5.43;;
46411;SDS011;32113;42.012;24.870;2023-06-22T09:00:55;8.05;;;5.85;;
46411;SDS011;32113;42.012;24.870;2023-06-22T09:03:21;6.30;;;5.32;;
46411;SDS011;32113;42.012;24.870;2023-06-22T09:05:46;6.85;;;5.45;;
46411;SDS011;32113;42.012;24.870;2023-06-22T09:08:12;6.50;;;5.18;;
46411;SDS011;32113;42.012;24.870;2023-06-22T09:10:37;10.40;;;6.00;;
46411;SDS011;32113;42.012;24.870;2023-06-22T09:13:02;6.35;;;5.72;;
46411;SDS011;32113;42.012;24.870;2023-06-22T09:15:28;8.30;;;5.60;;
46411;SDS011;32113;42.012;24.870;2023-06-22T09:17:53;7.35;;;5.43;;
46411;SDS011;32113;42.012;24.870;2023-06-22T09:20:19;8.27;;;5.85;;
46411;SDS011;32113;42.012;24.870;2023-06-22T09:22:45;6.50;;;5.80;;
46411;SDS011;32113;42.012;24.870;2023-06-22T09:25:10;6.47;;;4.97;;
46411;SDS011;32113;42.012;24.870;2023-06-22T09:27:36;6.27;;;5.50;;
46411;SDS011;32113;42.012;24.870;2023-06-22T09:30:01;6.40;;;5.43;;
46411;SDS011;32113;42.012;24.870;2023-06-22T09:34:53;10.30;;;5.77;;
46411;SDS011;32113;42.012;24.870;2023-06-22T09:37:19;8.57;;;5.40;;
46411;SDS011;32113;42.012;24.870;2023-06-22T09:39:44;8.52;;;6.03;;
46411;SDS011;32113;42.012;24.870;2023-06-22T09:42:10;9.27;;;5.90;;
46411;SDS011;32113;42.012;24.870;2023-06-22T09:44:35;7.00;;;5.70;;
46411;SDS011;32113;42.012;24.870;2023-06-22T09:47:00;5.97;;;5.37;;
46411;SDS011;32113;42.012;24.870;2023-06-22T09:49:27;7.03;;;5.85;;
46411;SDS011;32113;42.012;24.870;2023-06-22T09:51:52;9.37;;;6.03;;
46411;SDS011;32113;42.012;24.870;2023-06-22T09:54:18;6.53;;;5.73;;
46411;SDS011;32113;42.012;24.870;2023-06-22T09:56:43;9.07;;;5.67;;
46411;SDS011;32113;42.012;24.870;2023-06-22T09:59:08;8.43;;;5.90;;
46411;SDS011;32113;42.012;24.870;2023-06-22T10:01:34;6.90;;;5.30;;
46411;SDS011;32113;42.012;24.870;2023-06-22T10:03:59;7.43;;;5.93;;
46411;SDS011;32113;42.012;24.870;2023-06-22T10:06:25;9.23;;;5.83;;
46411;SDS011;32113;42.012;24.870;2023-06-22T10:08:50;5.95;;;5.20;;
46411;SDS011;32113;42.012;24.870;2023-06-22T10:11:16;7.88;;;5.72;;
46411;SDS011;32113;42.012;24.870;2023-06-22T10:13:42;11.27;;;6.13;;
46411;SDS011;32113;42.012;24.870;2023-06-22T10:16:07;6.80;;;5.40;;
46411;SDS011;32113;42.012;24.870;2023-06-22T10:18:33;8.87;;;5.50;;
46411;SDS011;32113;42.012;24.870;2023-06-22T10:20:59;7.73;;;5.30;;
46411;SDS011;32113;42.012;24.870;2023-06-22T10:23:25;7.97;;;5.57;;
46411;SDS011;32113;42.012;24.870;2023-06-22T10:25:50;9.67;;;6.00;;
46411;SDS011;32113;42.012;24.870;2023-06-22T10:28:16;12.53;;;6.07;;
46411;SDS011;32113;42.012;24.870;2023-06-22T10:30:42;8.60;;;5.65;;
46411;SDS011;32113;42.012;24.870;2023-06-22T10:33:08;7.65;;;5.50;;
46411;SDS011;32113;42.012;24.870;2023-06-22T10:35:35;12.93;;;6.30;;
46411;SDS011;32113;42.012;24.870;2023-06-22T10:38:02;6.95;;;5.32;;
46411;SDS011;32113;42.012;24.870;2023-06-22T10:40:28;6.70;;;5.33;;
46411;SDS011;32113;42.012;24.870;2023-06-22T10:42:54;7.40;;;5.67;;
46411;SDS011;32113;42.012;24.870;2023-06-22T10:45:19;6.13;;;5.10;;
46411;SDS011;32113;42.012;24.870;2023-06-22T10:47:44;6.97;;;5.53;;
46411;SDS011;32113;42.012;24.870;2023-06-22T10:50:10;9.20;;;5.67;;
46411;SDS011;32113;42.012;24.870;2023-06-22T10:52:36;12.75;;;5.68;;
46411;SDS011;32113;42.012;24.870;2023-06-22T10:55:02;6.30;;;5.70;;
46411;SDS011;32113;42.012;24.870;2023-06-22T10:57:27;8.37;;;5.37;;
46411;SDS011;32113;42.012;24.870;2023-06-22T10:59:53;8.57;;;5.30;;
46411;SDS011;32113;42.012;24.870;2023-06-22T11:02:18;6.17;;;5.53;;
46411;SDS011;32113;42.012;24.870;2023-06-22T11:04:44;7.80;;;5.43;;
46411;SDS011;32113;42.012;24.870;2023-06-22T11:07:09;5.77;;;5.17;;
46411;SDS011;32113;42.012;24.870;2023-06-22T11:09:35;7.35;;;5.55;;
46411;SDS011;32113;42.012;24.870;2023-06-22T11:12:00;5.85;;;5.35;;
46411;SDS011;32113;42.012;24.870;2023-06-22T11:14:26;6.97;;;5.72;;
46411;SDS011;32113;42.012;24.870;2023-06-22T11:16:51;7.03;;;5.73;;
46411;SDS011;32113;42.012;24.870;2023-06-22T11:19:17;10.33;;;5.63;;
46411;SDS011;32113;42.012;24.870;2023-06-22T11:21:44;7.13;;;5.15;;
46411;SDS011;32113;42.012;24.870;2023-06-22T11:24:09;7.17;;;5.30;;
46411;SDS011;32113;42.012;24.870;2023-06-22T11:26:35;6.25;;;5.63;;
46411;SDS011;32113;42.012;24.870;2023-06-22T11:29:00;7.17;;;5.97;;
46411;SDS011;32113;42.012;24.870;2023-06-22T11:31:30;10.23;;;6.10;;
46411;SDS011;32113;42.012;24.870;2023-06-22T11:33:55;6.40;;;5.77;;
46411;SDS011;32113;42.012;24.870;2023-06-22T11:36:20;6.73;;;5.63;;
46411;SDS011;32113;42.012;24.870;2023-06-22T11:38:46;6.53;;;5.37;;
46411;SDS011;32113;42.012;24.870;2023-06-22T11:41:11;6.00;;;5.47;;
46411;SDS011;32113;42.012;24.870;2023-06-22T11:43:37;11.47;;;5.60;;
46411;SDS011;32113;42.012;24.870;2023-06-22T11:46:03;7.70;;;6.23;;
46411;SDS011;32113;42.012;24.870;2023-06-22T11:48:29;11.27;;;6.00;;
46411;SDS011;32113;42.012;24.870;2023-06-22T11:50:55;7.63;;;6.53;;
46411;SDS011;32113;42.012;24.870;2023-06-22T11:53:20;7.70;;;6.00;;
46411;SDS011;32113;42.012;24.870;2023-06-22T11:55:46;8.25;;;5.97;;
46411;SDS011;32113;42.012;24.870;2023-06-22T11:58:12;8.47;;;6.13;;
46411;SDS011;32113;42.012;24.870;2023-06-22T12:00:38;10.47;;;6.67;;
46411;SDS011;32113;42.012;24.870;2023-06-22T12:03:03;11.10;;;6.60;;
46411;SDS011;32113;42.012;24.870;2023-06-22T12:05:29;7.50;;;6.60;;
46411;SDS011;32113;42.012;24.870;2023-06-22T12:07:54;10.00;;;6.73;;
46411;SDS011;32113;42.012;24.870;2023-06-22T12:10:21;7.23;;;6.53;;
46411;SDS011;32113;42.012;24.870;2023-06-22T12:12:50;8.57;;;6.00;;
46411;SDS011;32113;42.012;24.870;2023-06-22T12:15:16;7.77;;;6.60;;
46411;SDS011;32113;42.012;24.870;2023-06-22T12:17:41;10.75;;;6.00;;
46411;SDS011;32113;42.012;24.870;2023-06-22T12:20:07;9.80;;;6.63;;
46411;SDS011;32113;42.012;24.870;2023-06-22T12:22:33;8.30;;;6.07;;
46411;SDS011;32113;42.012;24.870;2023-06-22T12:24:58;10.03;;;6.33;;
46411;SDS011;32113;42.012;24.870;2023-06-22T12:27:24;8.70;;;5.80;;
46411;SDS011;32113;42.012;24.870;2023-06-22T12:29:50;7.57;;;6.05;;
46411;SDS011;32113;42.012;24.870;2023-06-22T12:32:15;6.87;;;6.13;;
46411;SDS011;32113;42.012;24.870;2023-06-22T12:34:44;8.77;;;6.17;;
46411;SDS011;32113;42.012;24.870;2023-06-22T12:37:10;8.57;;;5.88;;
46411;SDS011;32113;42.012;24.870;2023-06-22T12:39:35;6.20;;;5.60;;
46411;SDS011;32113;42.012;24.870;2023-06-22T12:42:01;7.97;;;5.73;;
46411;SDS011;32113;42.012;24.870;2023-06-22T12:44:27;7.77;;;6.00;;
46411;SDS011;32113;42.012;24.870;2023-06-22T12:46:52;7.90;;;6.30;;
46411;SDS011;32113;42.012;24.870;2023-06-22T12:49:17;6.47;;;5.77;;
46411;SDS011;32113;42.012;24.870;2023-06-22T12:51:43;6.93;;;5.60;;
46411;SDS011;32113;42.012;24.870;2023-06-22T12:54:09;8.53;;;5.70;;
46411;SDS011;32113;42.012;24.870;2023-06-22T12:56:35;7.25;;;5.63;;
46411;SDS011;32113;42.012;24.870;2023-06-22T12:59:01;11.20;;;6.20;;
46411;SDS011;32113;42.012;24.870;2023-06-22T13:01:27;8.43;;;5.90;;
46411;SDS011;32113;42.012;24.870;2023-06-22T13:03:53;7.70;;;5.63;;
46411;SDS011;32113;42.012;24.870;2023-06-22T13:06:19;11.60;;;6.03;;
46411;SDS011;32113;42.012;24.870;2023-06-22T13:08:44;8.07;;;5.87;;
46411;SDS011;32113;42.012;24.870;2023-06-22T13:11:10;7.80;;;6.30;;
46411;SDS011;32113;42.012;24.870;2023-06-22T13:13:35;5.70;;;5.10;;
46411;SDS011;32113;42.012;24.870;2023-06-22T13:16:01;7.53;;;5.63;;
46411;SDS011;32113;42.012;24.870;2023-06-22T13:18:26;5.93;;;5.33;;
46411;SDS011;32113;42.012;24.870;2023-06-22T13:20:52;11.40;;;5.70;;
46411;SDS011;32113;42.012;24.870;2023-06-22T13:23:19;9.95;;;6.75;;
46411;SDS011;32113;42.012;24.870;2023-06-22T13:25:45;7.07;;;6.10;;
46411;SDS011;32113;42.012;24.870;2023-06-22T13:28:10;10.87;;;6.77;;
46411;SDS011;32113;42.012;24.870;2023-06-22T13:30:38;10.60;;;7.00;;
46411;SDS011;32113;42.012;24.870;2023-06-22T13:33:04;7.20;;;6.47;;
46411;SDS011;32113;42.012;24.870;2023-06-22T13:35:29;8.43;;;6.03;;
46411;SDS011;32113;42.012;24.870;2023-06-22T13:37:55;10.80;;;7.00;;
46411;SDS011;32113;42.012;24.870;2023-06-22T13:40:20;12.20;;;5.95;;
46411;SDS011;32113;42.012;24.870;2023-06-22T13:42:46;10.50;;;6.30;;
46411;SDS011;32113;42.012;24.870;2023-06-22T13:45:12;14.50;;;6.85;;
46411;SDS011;32113;42.012;24.870;2023-06-22T13:47:37;8.20;;;6.63;;
46411;SDS011;32113;42.012;24.870;2023-06-22T13:50:03;9.80;;;7.03;;
46411;SDS011;32113;42.012;24.870;2023-06-22T13:52:28;8.18;;;6.35;;
46411;SDS011;32113;42.012;24.870;2023-06-22T13:54:54;10.85;;;6.95;;
46411;SDS011;32113;42.012;24.870;2023-06-22T13:57:19;7.88;;;6.88;;
46411;SDS011;32113;42.012;24.870;2023-06-22T13:59:45;13.30;;;8.45;;
46411;SDS011;32113;42.012;24.870;2023-06-22T14:02:10;9.32;;;7.35;;
46411;SDS011;32113;42.012;24.870;2023-06-22T14:04:36;8.52;;;7.57;;
46411;SDS011;32113;42.012;24.870;2023-06-22T14:07:01;8.23;;;7.40;;
46411;SDS011;32113;42.012;24.870;2023-06-22T14:09:26;9.25;;;7.43;;
46411;SDS011;32113;42.012;24.870;2023-06-22T14:11:53;11.00;;;7.25;;
46411;SDS011;32113;42.012;24.870;2023-06-22T14:14:19;9.75;;;7.45;;
46411;SDS011;32113;42.012;24.870;2023-06-22T14:16:45;13.43;;;7.93;;
46411;SDS011;32113;42.012;24.870;2023-06-22T14:19:11;8.75;;;7.57;;
46411;SDS011;32113;42.012;24.870;2023-06-22T14:21:36;8.95;;;8.05;;
46411;SDS011;32113;42.012;24.870;2023-06-22T14:24:02;10.88;;;7.75;;
46411;SDS011;32113;42.012;24.870;2023-06-22T14:26:27;12.85;;;7.70;;
46411;SDS011;32113;42.012;24.870;2023-06-22T14:28:52;10.52;;;8.23;;
46411;SDS011;32113;42.012;24.870;2023-06-22T14:31:18;10.10;;;8.55;;
46411;SDS011;32113;42.012;24.870;2023-06-22T14:33:47;9.40;;;7.80;;